createdAt,value
2022-08-21T00:03:48.653Z,17.00
2022-08-21T00:07:50.250Z,16.90
2022-08-21T00:11:51.869Z,16.80
2022-08-21T00:15:53.493Z,16.80
2022-08-21T00:19:55.090Z,16.30
2022-08-21T00:23:56.716Z,16.40
2022-08-21T00:27:58.500Z,16.40
2022-08-21T00:32:00.116Z,16.50
2022-08-21T00:36:02.223Z,16.00
2022-08-21T00:40:04.416Z,16.10
2022-08-21T00:44:09.070Z,16.10
2022-08-21T00:48:10.770Z,15.70
2022-08-21T00:52:16.684Z,16.00
2022-08-21T00:56:18.780Z,15.80
2022-08-21T01:00:28.839Z,15.60
2022-08-21T01:04:30.492Z,15.50
2022-08-21T01:08:32.214Z,15.80
2022-08-21T01:12:34.406Z,15.80
2022-08-21T01:16:36.032Z,15.80
2022-08-21T01:20:38.939Z,15.80
2022-08-21T01:24:40.624Z,16.00
2022-08-21T01:28:44.917Z,16.10
2022-08-21T01:32:48.278Z,16.00
2022-08-21T01:36:50.045Z,15.70
2022-08-21T01:40:51.752Z,15.70
2022-08-21T01:44:54.697Z,15.90
2022-08-21T01:48:57.910Z,15.70
2022-08-21T01:52:59.570Z,15.70
2022-08-21T01:57:01.945Z,15.70
2022-08-21T02:01:04.349Z,15.70
2022-08-21T02:05:06.374Z,15.40
2022-08-21T02:09:09.221Z,15.10
2022-08-21T02:13:13.323Z,15.20
2022-08-21T02:17:15.320Z,15.20
2022-08-21T02:21:17.443Z,15.10
2022-08-21T02:25:20.662Z,14.60
2022-08-21T02:29:22.246Z,14.80
2022-08-21T02:33:24.036Z,15.00
2022-08-21T02:37:25.758Z,14.60
2022-08-21T02:41:27.414Z,14.70
2022-08-21T02:45:31.309Z,14.50
2022-08-21T02:49:33.013Z,14.70
2022-08-21T02:53:35.214Z,15.00
2022-08-21T02:57:37.509Z,14.80
2022-08-21T03:01:39.102Z,14.50
2022-08-21T03:05:40.849Z,14.60
2022-08-21T03:09:55.134Z,14.80
2022-08-21T03:13:57.548Z,14.80
2022-08-21T03:17:59.687Z,14.90
2022-08-21T03:22:01.451Z,14.80
2022-08-21T03:26:03.263Z,14.80
2022-08-21T03:30:06.565Z,15.20
2022-08-21T03:34:08.148Z,15.30
2022-08-21T03:38:09.994Z,15.20
2022-08-21T03:42:11.950Z,14.90
2022-08-21T03:46:14.713Z,14.80
2022-08-21T03:50:18.050Z,15.10
2022-08-21T03:54:19.883Z,14.60
2022-08-21T03:58:23.346Z,14.10
2022-08-21T04:02:24.993Z,14.20
2022-08-21T04:06:27.443Z,14.70
2022-08-21T04:10:29.708Z,14.80
2022-08-21T04:14:31.315Z,14.40
2022-08-21T04:18:33.026Z,14.60
2022-08-21T04:22:34.759Z,14.80
2022-08-21T04:26:37.274Z,14.70
2022-08-21T04:30:38.968Z,14.70
2022-08-21T04:34:40.590Z,14.50
2022-08-21T04:38:44.706Z,14.10
2022-08-21T04:42:47.977Z,14.40
2022-08-21T04:46:49.650Z,14.00
2022-08-21T04:50:54.313Z,14.00
2022-08-21T04:54:56.071Z,13.80
2022-08-21T04:58:59.334Z,13.80
2022-08-21T05:03:01.867Z,13.90
2022-08-21T05:07:05.348Z,13.90
2022-08-21T05:11:07.449Z,14.00
2022-08-21T05:15:09.664Z,14.00
2022-08-21T05:19:15.098Z,14.10
2022-08-21T05:23:16.730Z,14.20
2022-08-21T05:27:18.419Z,14.20
2022-08-21T05:31:21.854Z,14.20
2022-08-21T05:35:23.548Z,14.30
2022-08-21T05:39:25.228Z,14.40
2022-08-21T05:43:26.933Z,14.90
2022-08-21T05:47:28.641Z,14.90
2022-08-21T05:51:30.991Z,14.90
2022-08-21T05:55:33.934Z,15.00
2022-08-21T05:59:35.804Z,15.60
2022-08-21T06:03:39.170Z,15.70
2022-08-21T06:07:40.786Z,15.70
2022-08-21T06:11:42.679Z,15.80
2022-08-21T06:15:44.709Z,16.10
2022-08-21T06:19:46.453Z,16.40
2022-08-21T06:23:48.415Z,16.60
2022-08-21T06:27:50.420Z,17.10
2022-08-21T06:31:52.506Z,17.10
2022-08-21T06:35:54.172Z,17.30
2022-08-21T06:39:55.892Z,17.50
2022-08-21T06:43:58.182Z,17.60
2022-08-21T06:48:00.514Z,17.50
2022-08-21T06:52:02.488Z,17.40
2022-08-21T06:56:04.660Z,17.70
2022-08-21T07:00:07.440Z,18.00
2022-08-21T07:04:11.796Z,18.60
2022-08-21T07:08:13.671Z,18.40
2022-08-21T07:12:15.581Z,18.60
2022-08-21T07:16:17.238Z,18.70
2022-08-21T07:20:18.927Z,18.70
2022-08-21T07:24:20.611Z,19.00
2022-08-21T07:28:22.387Z,19.40
2022-08-21T07:32:24.231Z,19.30
2022-08-21T07:36:26.048Z,19.30
2022-08-21T07:40:27.732Z,19.40
2022-08-21T07:44:29.519Z,19.70
2022-08-21T07:48:31.278Z,20.10
2022-08-21T07:52:33.793Z,20.10
2022-08-21T07:56:35.568Z,20.40
2022-08-21T08:00:37.295Z,20.40
2022-08-21T08:04:39.005Z,20.50
2022-08-21T08:08:53.255Z,20.40
2022-08-21T08:12:55.753Z,20.40
2022-08-21T08:16:57.788Z,20.70
2022-08-21T08:21:00.556Z,20.40
2022-08-21T08:25:04.292Z,20.50
2022-08-21T08:29:09.213Z,20.70
2022-08-21T08:33:10.948Z,21.40
2022-08-21T08:37:12.849Z,21.20
2022-08-21T08:41:16.961Z,21.40
2022-08-21T08:45:20.637Z,20.90
2022-08-21T08:49:25.162Z,21.10
2022-08-21T08:53:40.724Z,21.80
2022-08-21T08:57:45.451Z,21.40
2022-08-21T09:01:53.647Z,21.70
2022-08-21T09:06:06.662Z,22.00
2022-08-21T09:10:35.425Z,22.40
2022-08-21T09:14:52.141Z,21.90
2022-08-21T09:18:56.898Z,22.10
2022-08-21T09:23:16.939Z,22.70
2022-08-21T09:27:20.048Z,22.50
2022-08-21T09:31:23.817Z,22.30
2022-08-21T09:35:26.485Z,22.30
2022-08-21T09:39:29.739Z,22.90
2022-08-21T09:43:32.190Z,23.10
2022-08-21T09:47:34.011Z,23.10
2022-08-21T09:51:37.810Z,23.00
2022-08-21T09:56:05.911Z,23.20
2022-08-21T10:00:21.129Z,23.30
2022-08-21T10:04:24.384Z,22.90
2022-08-21T10:08:27.587Z,23.20
2022-08-21T10:12:35.725Z,22.80
2022-08-21T10:16:40.528Z,23.10
2022-08-21T10:20:47.078Z,23.60
2022-08-21T10:24:51.914Z,24.40
2022-08-21T10:28:53.715Z,23.60
2022-08-21T10:33:14.415Z,24.10
2022-08-21T10:37:35.484Z,23.90
2022-08-21T10:41:59.835Z,24.20
2022-08-21T10:46:08.238Z,24.40
2022-08-21T10:50:10.085Z,24.80
2022-08-21T10:54:18.194Z,24.60
2022-08-21T10:58:26.040Z,24.40
2022-08-21T11:02:51.400Z,24.00
2022-08-21T11:06:59.621Z,23.80
2022-08-21T11:11:08.726Z,24.80
2022-08-21T11:15:29.972Z,24.90
2022-08-21T11:19:34.389Z,24.80
2022-08-21T11:23:47.041Z,25.40
2022-08-21T11:27:55.253Z,25.70
2022-08-21T11:31:57.608Z,25.10
2022-08-21T11:36:05.248Z,24.80
2022-08-21T11:40:13.010Z,25.00
2022-08-21T11:44:26.867Z,25.60
2022-08-21T11:48:31.487Z,25.90
2022-08-21T11:52:37.181Z,25.50
2022-08-21T11:56:43.374Z,25.20
2022-08-21T12:00:48.901Z,25.10
2022-08-21T12:04:53.517Z,25.30
2022-08-21T12:09:00.674Z,25.50
2022-08-21T12:13:22.890Z,24.60
2022-08-21T12:17:51.801Z,25.60
2022-08-21T12:21:59.625Z,25.40
2022-08-21T12:26:13.862Z,25.20
2022-08-21T12:30:30.486Z,24.80
2022-08-21T12:34:51.395Z,24.80
2022-08-21T12:38:59.214Z,24.90
2022-08-21T12:43:03.359Z,24.60
2022-08-21T12:47:17.893Z,24.70
2022-08-21T12:51:26.475Z,24.80
2022-08-21T12:55:30.124Z,24.90
2022-08-21T12:59:32.771Z,24.90
2022-08-21T13:03:38.273Z,24.80
2022-08-21T13:07:44.645Z,25.20
2022-08-21T13:11:47.999Z,25.50
2022-08-21T13:15:57.973Z,25.20
2022-08-21T13:20:05.968Z,25.00
2022-08-21T13:24:41.230Z,25.30
2022-08-21T13:28:41.343Z,25.00
2022-08-21T13:32:46.849Z,25.10
2022-08-21T13:36:48.718Z,25.00
2022-08-21T13:40:52.320Z,24.70
2022-08-21T13:44:55.064Z,24.80
2022-08-21T13:48:57.198Z,25.10
2022-08-21T13:53:01.094Z,24.80
2022-08-21T13:57:03.042Z,25.30
2022-08-21T14:01:06.809Z,25.30
2022-08-21T14:05:15.225Z,24.90
2022-08-21T14:09:46.325Z,25.00
2022-08-21T14:13:57.145Z,24.90
2022-08-21T14:18:10.281Z,24.60
2022-08-21T14:22:30.436Z,24.50
2022-08-21T14:26:35.049Z,24.40
2022-08-21T14:30:38.493Z,24.40
2022-08-21T14:34:40.343Z,24.40
2022-08-21T14:38:42.088Z,24.30
2022-08-21T14:42:44.772Z,24.50
2022-08-21T14:46:55.603Z,24.30
2022-08-21T14:51:00.538Z,24.30
2022-08-21T14:55:02.551Z,24.20
2022-08-21T14:59:06.277Z,24.00
2022-08-21T15:03:09.347Z,24.00
2022-08-21T15:07:11.054Z,23.90
2022-08-21T15:11:41.139Z,23.90
2022-08-21T15:15:42.679Z,23.80
2022-08-21T15:19:44.455Z,23.70
2022-08-21T15:23:46.385Z,23.70
2022-08-21T15:27:48.270Z,23.70
2022-08-21T15:31:57.818Z,23.70
2022-08-21T15:36:02.633Z,23.70
2022-08-21T15:40:06.293Z,23.50
2022-08-21T15:44:10.242Z,23.40
2022-08-21T15:48:12.032Z,23.20
2022-08-21T15:52:14.129Z,23.30
2022-08-21T15:56:23.663Z,23.10
2022-08-21T16:00:28.352Z,23.30
2022-08-21T16:04:30.732Z,23.00
2022-08-21T16:08:32.427Z,22.90
2022-08-21T16:12:35.840Z,23.00
2022-08-21T16:16:37.605Z,23.00
2022-08-21T16:20:39.812Z,23.10
2022-08-21T16:24:41.897Z,23.10
2022-08-21T16:28:44.143Z,23.00
2022-08-21T16:32:47.024Z,22.90
2022-08-21T16:36:58.341Z,22.90
2022-08-21T16:41:00.419Z,22.70
2022-08-21T16:45:09.291Z,22.80
2022-08-21T16:49:11.315Z,22.70
2022-08-21T16:53:13.297Z,22.70
2022-08-21T16:57:15.280Z,22.70
2022-08-21T17:01:20.002Z,22.60
2022-08-21T17:05:22.026Z,22.60
2022-08-21T17:09:24.396Z,22.40
2022-08-21T17:13:27.240Z,22.20
2022-08-21T17:17:32.916Z,22.20
2022-08-21T17:21:34.774Z,22.10
2022-08-21T17:25:39.965Z,22.20
2022-08-21T17:29:41.963Z,22.20
2022-08-21T17:33:50.629Z,22.10
2022-08-21T17:37:53.479Z,22.10
2022-08-21T17:41:58.139Z,22.10
2022-08-21T17:46:00.246Z,22.10
2022-08-21T17:50:04.499Z,22.00
2022-08-21T17:54:06.489Z,22.00
2022-08-21T17:58:09.422Z,21.90
2022-08-21T18:02:19.975Z,21.80
2022-08-21T18:06:22.256Z,21.80
2022-08-21T18:10:24.606Z,21.70
2022-08-21T18:14:28.416Z,21.70
2022-08-21T18:18:32.843Z,21.70
2022-08-21T18:22:34.511Z,21.60
2022-08-21T18:26:37.629Z,21.50
2022-08-21T18:30:40.895Z,21.50
2022-08-21T18:34:42.983Z,21.50
2022-08-21T18:38:44.740Z,21.40
2022-08-21T18:42:49.703Z,21.40
2022-08-21T18:46:59.299Z,21.10
2022-08-21T18:51:01.332Z,21.00
2022-08-21T18:59:29.017Z,20.90
2022-08-21T19:03:31.472Z,20.80
2022-08-21T19:07:34.186Z,20.70
2022-08-21T19:11:40.983Z,20.70
2022-08-21T19:15:49.871Z,20.60
2022-08-21T19:19:52.374Z,20.50
2022-08-21T19:23:54.863Z,20.50
2022-08-21T19:27:59.734Z,20.30
2022-08-21T19:32:03.740Z,20.10
2022-08-21T19:36:06.417Z,20.20
2022-08-21T19:40:08.855Z,20.30
2022-08-21T19:44:15.016Z,20.50
2022-08-21T19:48:19.007Z,20.20
2022-08-21T19:52:21.703Z,20.20
2022-08-21T19:56:26.471Z,20.50
2022-08-21T20:00:31.292Z,20.80
2022-08-21T20:04:37.817Z,20.90
2022-08-21T20:08:40.464Z,20.70
2022-08-21T20:12:50.499Z,20.70
2022-08-21T20:16:52.877Z,20.50
2022-08-21T20:20:55.190Z,20.70
2022-08-21T20:24:57.288Z,20.60
2022-08-21T20:29:00.423Z,20.60
2022-08-21T20:33:03.308Z,20.50
2022-08-21T20:37:05.746Z,20.60
2022-08-21T20:41:21.391Z,20.50
2022-08-21T20:45:32.323Z,20.30
2022-08-21T20:49:37.594Z,20.10
2022-08-21T20:58:06.183Z,20.10
2022-08-21T21:02:28.046Z,19.90
2022-08-21T21:06:30.699Z,20.00
2022-08-21T21:10:38.618Z,19.80
2022-08-21T21:14:48.443Z,19.60
2022-08-21T21:18:53.497Z,19.40
2022-08-21T21:22:57.431Z,19.60
2022-08-21T21:27:11.503Z,19.60
2022-08-21T21:31:13.868Z,19.50
2022-08-21T21:35:16.061Z,19.40
2022-08-21T21:39:43.565Z,19.30
2022-08-21T21:44:03.594Z,19.40
2022-08-21T21:48:23.659Z,19.30
2022-08-21T21:52:39.371Z,19.30
2022-08-21T21:56:46.050Z,19.00
2022-08-21T22:00:52.168Z,19.00
2022-08-21T22:05:00.558Z,19.40
2022-08-21T22:09:10.373Z,19.00
2022-08-21T22:13:26.364Z,19.00
2022-08-21T22:17:37.591Z,19.20
2022-08-21T22:21:46.867Z,18.70
2022-08-21T22:25:53.572Z,18.70
2022-08-21T22:29:57.721Z,18.60
2022-08-21T22:34:02.466Z,18.90
2022-08-21T22:38:12.845Z,18.70
2022-08-21T22:42:22.806Z,18.40
2022-08-21T22:46:26.818Z,18.40
2022-08-21T22:50:32.461Z,18.40
2022-08-21T22:54:45.304Z,18.20
2022-08-21T22:58:57.502Z,18.30
2022-08-21T23:02:59.974Z,18.30
2022-08-21T23:07:06.097Z,18.30
2022-08-21T23:11:17.142Z,18.30
2022-08-21T23:15:19.331Z,18.10
2022-08-21T23:19:49.445Z,18.10
2022-08-21T23:24:06.738Z,17.70
2022-08-21T23:28:21.083Z,18.40
2022-08-21T23:32:22.705Z,18.30
2022-08-21T23:37:10.869Z,17.90
2022-08-21T23:41:19.294Z,18.20
2022-08-21T23:45:40.368Z,17.90
2022-08-21T23:49:56.892Z,17.70
2022-08-21T23:54:34.096Z,17.70
2022-08-21T23:58:45.979Z,17.50
